North Bay Airport
CYYB : now visible

Airfield :











YOU CAN JOIN US ON...

 
LOGIN :

Register | Disclaimer

   EN    FR    IT 

 









Legend :    VFR   Marginal VFR   IFR   Intensive IFR   Very Intensive IFR
Visi :
Ceiling :
>= 8 km
>= 3000ft
5 to 8 km
1000 to 3000 ft
1500m to 5 km
500 to 1000 ft
800 to 1500m
200 to 500 ft
< 800m
< 200 ft
Symbols :   Thunderstorms  Fog  Heavy snow  Heavy precipitations  Wind > 20 kt






- Airport Elevation : 1215 ft
- IATA code : YYB


CYYB - North Bay

CURRENT METAR :
  • 181100Z AUTO 09010KT 9SM BKN110 BKN180 OVC220 M17/M20 A3033 RMK SLP310

EXPIRED METARs :
  • 181000Z AUTO 10010KT 9SM SCT120 OVC140 M16/M20 A3037 RMK PRESFR SLP324
  • 180900Z AUTO 10008KT 9SM BKN130 OVC170 M17/M20 A3043 RMK SLP343

TAF TAF CYYB
Valid from the 18 at 08:00 until the 18 at 20:00 UTC


180738Z 1808/1820 10007KT P6SM FEW020 OVC120
TEMPO 1808/1816 BKN020 OVC120
FM181600 09012KT P6SM -SN SCT020 OVC050
TEMPO 1816/1818 11/2SM -SN OVC020
FM181800 08015KT 1/2SM SN OVC006
TEMPO 1818/1820 1SM -SN OVC010 RMK FCST BASED ON AUTO OBS. NXT FCST BY 181400Z



MET'MAP, your aeronautical weather chart ! - Copyright ORBIFLY December 2007 - Disclaimer

ORBIFLY MET'MAP TEAM :

Programming & Development : Alexandra Zaïnal
Concept & original design : Baudouin d'Aumeries
Assistance for programming : Marc-Olivier Méhu
Technical & hardware support : Manuel Goepfert

Contact : metmap@orbifly.com




SOURCES & CREDITS :

   NOAA       Earth
Advisory